createdAt,value
2024-03-02T19:20:12.754Z,10.30
2024-03-02T19:22:39.871Z,10.20
2024-03-02T19:25:10.588Z,10.10
2024-03-02T19:27:38.296Z,10.10
2024-03-02T19:30:08.655Z,10.10
2024-03-02T19:32:35.634Z,10.00
2024-03-02T19:35:02.518Z,10.00
2024-03-02T19:37:29.358Z,10.00
2024-03-02T19:39:56.393Z,9.90
2024-03-02T19:42:23.224Z,10.00
2024-03-02T19:44:49.873Z,9.90
2024-03-02T19:47:19.515Z,9.90
2024-03-02T19:49:47.215Z,9.90
2024-03-02T19:52:14.009Z,9.90
2024-03-02T19:54:40.814Z,9.90
2024-03-02T19:57:07.526Z,9.90
2024-03-02T19:59:34.224Z,9.90
2024-03-02T20:02:00.958Z,9.80
2024-03-02T20:04:27.666Z,9.80
2024-03-02T20:06:55.290Z,9.80
2024-03-02T20:09:22.471Z,9.80
2024-03-02T20:11:55.504Z,9.80
2024-03-02T20:14:22.609Z,9.80
2024-03-02T20:16:49.297Z,9.80
2024-03-02T20:19:18.481Z,9.80
2024-03-02T20:21:45.462Z,9.80
2024-03-02T20:24:12.245Z,9.80
2024-03-02T20:26:39.138Z,9.70
2024-03-02T20:29:05.800Z,9.70
2024-03-02T20:31:32.530Z,9.70
2024-03-02T20:33:59.478Z,9.70
2024-03-02T20:36:26.116Z,9.60
2024-03-02T20:38:52.828Z,9.60
2024-03-02T20:41:20.668Z,9.60
2024-03-02T20:43:57.901Z,9.60
2024-03-02T20:46:24.595Z,9.60
2024-03-02T20:48:51.363Z,9.60
2024-03-02T20:51:18.118Z,9.50
2024-03-02T20:53:44.808Z,9.50
2024-03-02T20:56:11.545Z,9.50
2024-03-02T20:58:38.207Z,9.50
2024-03-02T21:01:06.361Z,9.40
2024-03-02T21:03:34.206Z,9.40
2024-03-02T21:06:01.687Z,9.50
2024-03-02T21:08:28.687Z,9.40
2024-03-02T21:10:55.389Z,9.40
2024-03-02T21:13:22.322Z,9.40
2024-03-02T21:15:50.114Z,9.40
2024-03-02T21:18:18.658Z,9.30
2024-03-02T21:20:45.313Z,9.30
2024-03-02T21:23:15.630Z,9.30
2024-03-02T21:25:42.864Z,9.30
2024-03-02T21:28:09.722Z,9.30
2024-03-02T21:30:37.048Z,9.30
2024-03-02T21:33:07.995Z,9.30
2024-03-02T21:35:34.782Z,9.30
2024-03-02T21:38:04.211Z,9.30
2024-03-02T21:40:31.945Z,9.30
2024-03-02T21:42:59.455Z,9.20
2024-03-02T21:45:26.716Z,9.30
2024-03-02T21:47:53.428Z,9.20
2024-03-02T21:50:20.109Z,9.20
2024-03-02T21:52:47.917Z,9.20
2024-03-02T21:55:14.796Z,9.20
2024-03-02T21:57:42.259Z,9.20
2024-03-02T22:00:10.214Z,9.20
2024-03-02T22:02:37.050Z,9.10
2024-03-02T22:05:03.846Z,9.00
2024-03-02T22:07:30.645Z,9.10
2024-03-02T22:09:58.370Z,9.10
2024-03-02T22:12:25.108Z,9.00
2024-03-02T22:14:51.935Z,9.00
2024-03-02T22:17:18.603Z,9.00
2024-03-02T22:19:45.346Z,9.00
2024-03-02T22:22:12.175Z,9.00
2024-03-02T22:24:38.992Z,9.00
2024-03-02T22:27:06.097Z,8.90
2024-03-02T22:29:32.796Z,8.90
2024-03-02T22:32:02.609Z,8.90
2024-03-02T22:34:29.705Z,8.90
2024-03-02T22:36:56.504Z,8.90
2024-03-02T22:39:23.147Z,8.90
2024-03-02T22:41:51.771Z,8.80
2024-03-02T22:44:21.708Z,8.80
2024-03-02T22:46:48.365Z,8.80
2024-03-02T22:49:15.464Z,8.70
2024-03-02T22:51:42.331Z,8.70
2024-03-02T22:54:09.019Z,8.60
2024-03-02T22:56:35.624Z,8.60
2024-03-02T22:59:02.495Z,8.60
2024-03-02T23:01:29.227Z,8.60
2024-03-02T23:03:55.893Z,8.60
2024-03-02T23:06:23.979Z,8.60
2024-03-02T23:08:50.685Z,8.60
2024-03-02T23:11:17.739Z,8.50
2024-03-02T23:13:44.522Z,8.50
2024-03-02T23:16:11.260Z,8.40
2024-03-02T23:18:38.030Z,8.40
2024-03-02T23:21:05.064Z,8.40
2024-03-02T23:23:31.734Z,8.40
2024-03-02T23:25:58.354Z,8.30
2024-03-02T23:28:25.121Z,8.30
2024-03-02T23:30:51.897Z,8.30
2024-03-02T23:33:18.575Z,8.30
2024-03-02T23:35:45.486Z,8.20
2024-03-02T23:38:12.113Z,8.20
2024-03-02T23:41:09.123Z,8.20
2024-03-02T23:43:37.226Z,8.20
2024-03-02T23:46:05.865Z,8.10
2024-03-02T23:48:32.626Z,8.10
2024-03-02T23:50:59.314Z,8.10
2024-03-02T23:53:25.951Z,8.00
2024-03-02T23:55:53.361Z,8.00
2024-03-02T23:58:20.500Z,8.00
